sensor_id;sensor_type;location;lat;lon;timestamp;P1;durP1;ratioP1;P2;durP2;ratioP2
66298;SDS011;53098;47.658;8.578;2023-04-24T00:02:00;0.90;;;0.60;;
66298;SDS011;53098;47.658;8.578;2023-04-24T00:04:25;1.70;;;0.70;;
66298;SDS011;53098;47.658;8.578;2023-04-24T00:06:50;1.90;;;0.50;;
66298;SDS011;53098;47.658;8.578;2023-04-24T00:09:15;4.67;;;0.93;;
66298;SDS011;53098;47.658;8.578;2023-04-24T00:11:40;2.70;;;0.57;;
66298;SDS011;53098;47.658;8.578;2023-04-24T00:14:06;3.30;;;0.60;;
66298;SDS011;53098;47.658;8.578;2023-04-24T00:16:31;3.40;;;0.73;;
66298;SDS011;53098;47.658;8.578;2023-04-24T00:18:56;1.97;;;0.87;;
66298;SDS011;53098;47.658;8.578;2023-04-24T00:21:21;2.87;;;0.90;;
66298;SDS011;53098;47.658;8.578;2023-04-24T00:23:47;1.13;;;0.63;;
66298;SDS011;53098;47.658;8.578;2023-04-24T00:26:13;2.47;;;0.77;;
66298;SDS011;53098;47.658;8.578;2023-04-24T00:28:38;1.60;;;0.70;;
66298;SDS011;53098;47.658;8.578;2023-04-24T00:31:03;1.40;;;0.77;;
66298;SDS011;53098;47.658;8.578;2023-04-24T00:33:29;3.57;;;0.67;;
66298;SDS011;53098;47.658;8.578;2023-04-24T00:35:54;1.67;;;0.70;;
66298;SDS011;53098;47.658;8.578;2023-04-24T00:38:19;2.10;;;0.73;;
66298;SDS011;53098;47.658;8.578;2023-04-24T00:40:44;3.07;;;1.10;;
66298;SDS011;53098;47.658;8.578;2023-04-24T00:43:10;2.42;;;1.02;;
66298;SDS011;53098;47.658;8.578;2023-04-24T00:45:35;2.50;;;1.00;;
66298;SDS011;53098;47.658;8.578;2023-04-24T00:48:00;4.65;;;1.17;;
66298;SDS011;53098;47.658;8.578;2023-04-24T00:50:26;3.78;;;1.08;;
66298;SDS011;53098;47.658;8.578;2023-04-24T00:52:52;2.15;;;0.90;;
66298;SDS011;53098;47.658;8.578;2023-04-24T00:55:17;1.23;;;0.70;;
66298;SDS011;53098;47.658;8.578;2023-04-24T00:57:42;3.17;;;0.73;;
66298;SDS011;53098;47.658;8.578;2023-04-24T01:00:08;2.65;;;1.08;;
66298;SDS011;53098;47.658;8.578;2023-04-24T01:02:33;1.95;;;0.95;;
66298;SDS011;53098;47.658;8.578;2023-04-24T01:04:58;2.03;;;0.90;;
66298;SDS011;53098;47.658;8.578;2023-04-24T01:07:24;2.17;;;0.63;;
66298;SDS011;53098;47.658;8.578;2023-04-24T01:09:49;3.55;;;1.02;;
66298;SDS011;53098;47.658;8.578;2023-04-24T01:12:15;2.33;;;0.60;;
66298;SDS011;53098;47.658;8.578;2023-04-24T01:14:40;6.10;;;0.90;;
66298;SDS011;53098;47.658;8.578;2023-04-24T01:17:05;3.67;;;0.60;;
66298;SDS011;53098;47.658;8.578;2023-04-24T01:19:31;1.63;;;0.63;;
66298;SDS011;53098;47.658;8.578;2023-04-24T01:21:57;2.00;;;0.68;;
66298;SDS011;53098;47.658;8.578;2023-04-24T01:24:23;4.13;;;1.27;;
66298;SDS011;53098;47.658;8.578;2023-04-24T01:26:48;2.90;;;0.67;;
66298;SDS011;53098;47.658;8.578;2023-04-24T01:29:13;2.03;;;0.40;;
66298;SDS011;53098;47.658;8.578;2023-04-24T01:31:39;1.00;;;0.70;;
66298;SDS011;53098;47.658;8.578;2023-04-24T01:34:04;2.72;;;0.80;;
66298;SDS011;53098;47.658;8.578;2023-04-24T01:36:30;3.05;;;1.13;;
66298;SDS011;53098;47.658;8.578;2023-04-24T01:38:55;1.83;;;0.43;;
66298;SDS011;53098;47.658;8.578;2023-04-24T01:41:20;0.90;;;0.50;;
66298;SDS011;53098;47.658;8.578;2023-04-24T01:43:45;1.95;;;0.52;;
66298;SDS011;53098;47.658;8.578;2023-04-24T01:46:11;1.93;;;0.60;;
66298;SDS011;53098;47.658;8.578;2023-04-24T01:48:36;1.90;;;0.67;;
66298;SDS011;53098;47.658;8.578;2023-04-24T01:51:01;3.33;;;0.90;;
66298;SDS011;53098;47.658;8.578;2023-04-24T01:53:27;0.98;;;0.55;;
66298;SDS011;53098;47.658;8.578;2023-04-24T01:55:52;0.43;;;0.40;;
66298;SDS011;53098;47.658;8.578;2023-04-24T01:58:17;0.83;;;0.40;;
66298;SDS011;53098;47.658;8.578;2023-04-24T02:00:42;1.17;;;0.40;;
66298;SDS011;53098;47.658;8.578;2023-04-24T02:03:07;0.97;;;0.50;;
66298;SDS011;53098;47.658;8.578;2023-04-24T02:05:33;0.90;;;0.30;;
66298;SDS011;53098;47.658;8.578;2023-04-24T02:07:58;0.47;;;0.37;;
66298;SDS011;53098;47.658;8.578;2023-04-24T02:10:23;1.40;;;0.60;;
66298;SDS011;53098;47.658;8.578;2023-04-24T02:12:48;2.03;;;0.33;;
66298;SDS011;53098;47.658;8.578;2023-04-24T02:15:14;1.67;;;0.50;;
66298;SDS011;53098;47.658;8.578;2023-04-24T02:17:39;1.93;;;0.80;;
66298;SDS011;53098;47.658;8.578;2023-04-24T02:20:05;0.90;;;0.40;;
66298;SDS011;53098;47.658;8.578;2023-04-24T02:22:30;1.30;;;0.47;;
66298;SDS011;53098;47.658;8.578;2023-04-24T02:24:56;1.07;;;0.40;;
66298;SDS011;53098;47.658;8.578;2023-04-24T02:27:21;1.07;;;0.50;;
66298;SDS011;53098;47.658;8.578;2023-04-24T02:29:46;0.30;;;0.30;;
66298;SDS011;53098;47.658;8.578;2023-04-24T02:32:11;1.13;;;0.43;;
66298;SDS011;53098;47.658;8.578;2023-04-24T02:34:37;0.90;;;0.63;;
66298;SDS011;53098;47.658;8.578;2023-04-24T02:37:02;0.45;;;0.25;;
66298;SDS011;53098;47.658;8.578;2023-04-24T02:39:27;0.20;;;0.20;;
66298;SDS011;53098;47.658;8.578;2023-04-24T02:41:53;0.40;;;0.30;;
66298;SDS011;53098;47.658;8.578;2023-04-24T02:44:18;0.70;;;0.30;;
66298;SDS011;53098;47.658;8.578;2023-04-24T02:46:43;0.67;;;0.30;;
66298;SDS011;53098;47.658;8.578;2023-04-24T02:49:08;0.30;;;0.30;;
66298;SDS011;53098;47.658;8.578;2023-04-24T02:51:33;1.47;;;0.40;;
66298;SDS011;53098;47.658;8.578;2023-04-24T02:53:59;1.30;;;0.30;;
66298;SDS011;53098;47.658;8.578;2023-04-24T02:56:24;1.23;;;0.50;;
66298;SDS011;53098;47.658;8.578;2023-04-24T02:58:49;1.50;;;0.47;;
66298;SDS011;53098;47.658;8.578;2023-04-24T03:01:15;0.40;;;0.40;;
66298;SDS011;53098;47.658;8.578;2023-04-24T03:03:40;0.40;;;0.20;;
66298;SDS011;53098;47.658;8.578;2023-04-24T03:06:05;0.73;;;0.47;;
66298;SDS011;53098;47.658;8.578;2023-04-24T03:08:31;1.17;;;0.60;;
66298;SDS011;53098;47.658;8.578;2023-04-24T03:10:56;2.17;;;0.85;;
66298;SDS011;53098;47.658;8.578;2023-04-24T03:13:21;0.50;;;0.50;;
66298;SDS011;53098;47.658;8.578;2023-04-24T03:15:47;0.60;;;0.40;;
66298;SDS011;53098;47.658;8.578;2023-04-24T03:18:12;0.73;;;0.40;;
66298;SDS011;53098;47.658;8.578;2023-04-24T03:20:37;0.90;;;0.60;;
66298;SDS011;53098;47.658;8.578;2023-04-24T03:23:03;0.70;;;0.30;;
66298;SDS011;53098;47.658;8.578;2023-04-24T03:25:28;0.30;;;0.28;;
66298;SDS011;53098;47.658;8.578;2023-04-24T03:27:53;0.77;;;0.40;;
66298;SDS011;53098;47.658;8.578;2023-04-24T03:30:18;1.33;;;0.40;;
66298;SDS011;53098;47.658;8.578;2023-04-24T03:32:44;0.20;;;0.20;;
66298;SDS011;53098;47.658;8.578;2023-04-24T03:35:09;0.33;;;0.27;;
66298;SDS011;53098;47.658;8.578;2023-04-24T03:37:34;0.40;;;0.38;;
66298;SDS011;53098;47.658;8.578;2023-04-24T03:40:00;0.90;;;0.20;;
66298;SDS011;53098;47.658;8.578;2023-04-24T03:42:25;0.95;;;0.32;;
66298;SDS011;53098;47.658;8.578;2023-04-24T03:44:50;0.83;;;0.50;;
66298;SDS011;53098;47.658;8.578;2023-04-24T03:47:15;1.03;;;0.57;;
66298;SDS011;53098;47.658;8.578;2023-04-24T03:49:41;0.37;;;0.37;;
66298;SDS011;53098;47.658;8.578;2023-04-24T03:52:06;2.20;;;0.57;;
66298;SDS011;53098;47.658;8.578;2023-04-24T03:54:31;0.33;;;0.33;;
66298;SDS011;53098;47.658;8.578;2023-04-24T03:56:56;1.03;;;0.50;;
66298;SDS011;53098;47.658;8.578;2023-04-24T03:59:22;0.50;;;0.50;;
66298;SDS011;53098;47.658;8.578;2023-04-24T04:01:47;0.40;;;0.37;;
66298;SDS011;53098;47.658;8.578;2023-04-24T04:04:12;1.00;;;0.53;;
66298;SDS011;53098;47.658;8.578;2023-04-24T04:06:38;1.37;;;1.10;;
66298;SDS011;53098;47.658;8.578;2023-04-24T04:09:03;0.47;;;0.33;;
66298;SDS011;53098;47.658;8.578;2023-04-24T04:11:28;0.35;;;0.30;;
66298;SDS011;53098;47.658;8.578;2023-04-24T04:13:54;1.73;;;0.60;;
66298;SDS011;53098;47.658;8.578;2023-04-24T04:16:19;0.60;;;0.47;;
66298;SDS011;53098;47.658;8.578;2023-04-24T04:18:44;3.40;;;0.40;;
66298;SDS011;53098;47.658;8.578;2023-04-24T04:21:10;2.08;;;0.60;;
66298;SDS011;53098;47.658;8.578;2023-04-24T04:23:35;0.32;;;0.30;;
66298;SDS011;53098;47.658;8.578;2023-04-24T04:26:01;0.67;;;0.40;;
66298;SDS011;53098;47.658;8.578;2023-04-24T04:28:26;0.93;;;0.50;;
66298;SDS011;53098;47.658;8.578;2023-04-24T04:30:52;1.67;;;0.55;;
66298;SDS011;53098;47.658;8.578;2023-04-24T04:33:17;1.52;;;0.50;;
66298;SDS011;53098;47.658;8.578;2023-04-24T04:35:42;0.53;;;0.40;;
66298;SDS011;53098;47.658;8.578;2023-04-24T04:38:07;1.97;;;0.50;;
66298;SDS011;53098;47.658;8.578;2023-04-24T04:40:33;1.30;;;0.60;;
66298;SDS011;53098;47.658;8.578;2023-04-24T04:42:58;0.73;;;0.43;;
66298;SDS011;53098;47.658;8.578;2023-04-24T04:45:23;0.73;;;0.60;;
66298;SDS011;53098;47.658;8.578;2023-04-24T04:47:48;2.37;;;0.60;;
66298;SDS011;53098;47.658;8.578;2023-04-24T04:50:14;0.97;;;0.37;;
66298;SDS011;53098;47.658;8.578;2023-04-24T04:52:39;0.30;;;0.30;;
66298;SDS011;53098;47.658;8.578;2023-04-24T04:55:04;0.30;;;0.30;;
66298;SDS011;53098;47.658;8.578;2023-04-24T04:57:30;2.45;;;0.40;;
66298;SDS011;53098;47.658;8.578;2023-04-24T04:59:55;0.73;;;0.53;;
66298;SDS011;53098;47.658;8.578;2023-04-24T05:02:20;3.43;;;0.47;;
66298;SDS011;53098;47.658;8.578;2023-04-24T05:04:45;1.90;;;0.73;;
66298;SDS011;53098;47.658;8.578;2023-04-24T05:07:11;0.87;;;0.50;;
66298;SDS011;53098;47.658;8.578;2023-04-24T05:09:36;2.70;;;0.60;;
66298;SDS011;53098;47.658;8.578;2023-04-24T05:12:01;1.03;;;0.60;;
66298;SDS011;53098;47.658;8.578;2023-04-24T05:14:26;1.60;;;0.70;;
66298;SDS011;53098;47.658;8.578;2023-04-24T05:16:52;1.00;;;0.60;;
66298;SDS011;53098;47.658;8.578;2023-04-24T05:19:17;4.13;;;0.70;;
66298;SDS011;53098;47.658;8.578;2023-04-24T05:21:42;2.30;;;0.60;;
66298;SDS011;53098;47.658;8.578;2023-04-24T05:24:07;1.35;;;0.80;;
66298;SDS011;53098;47.658;8.578;2023-04-24T05:26:33;1.50;;;0.63;;
66298;SDS011;53098;47.658;8.578;2023-04-24T05:28:58;4.77;;;0.80;;
66298;SDS011;53098;47.658;8.578;2023-04-24T05:31:23;2.93;;;0.80;;
66298;SDS011;53098;47.658;8.578;2023-04-24T05:33:49;1.67;;;0.70;;
66298;SDS011;53098;47.658;8.578;2023-04-24T05:36:14;1.37;;;0.50;;
66298;SDS011;53098;47.658;8.578;2023-04-24T05:38:39;2.63;;;0.80;;
66298;SDS011;53098;47.658;8.578;2023-04-24T05:41:05;2.05;;;1.02;;
66298;SDS011;53098;47.658;8.578;2023-04-24T05:43:30;3.00;;;0.80;;
66298;SDS011;53098;47.658;8.578;2023-04-24T05:45:55;1.17;;;0.80;;
66298;SDS011;53098;47.658;8.578;2023-04-24T05:48:20;3.20;;;1.00;;
66298;SDS011;53098;47.658;8.578;2023-04-24T05:50:46;1.57;;;0.80;;
66298;SDS011;53098;47.658;8.578;2023-04-24T05:53:11;4.17;;;2.83;;
66298;SDS011;53098;47.658;8.578;2023-04-24T05:55:36;1.93;;;0.97;;
66298;SDS011;53098;47.658;8.578;2023-04-24T05:58:01;3.07;;;1.20;;
66298;SDS011;53098;47.658;8.578;2023-04-24T06:00:27;2.77;;;1.20;;
66298;SDS011;53098;47.658;8.578;2023-04-24T06:02:52;4.47;;;1.40;;
66298;SDS011;53098;47.658;8.578;2023-04-24T06:05:17;2.57;;;1.20;;
66298;SDS011;53098;47.658;8.578;2023-04-24T06:07:42;4.67;;;1.33;;
66298;SDS011;53098;47.658;8.578;2023-04-24T06:10:08;4.90;;;1.47;;
66298;SDS011;53098;47.658;8.578;2023-04-24T06:12:33;3.35;;;1.40;;
66298;SDS011;53098;47.658;8.578;2023-04-24T06:14:58;6.17;;;1.40;;
66298;SDS011;53098;47.658;8.578;2023-04-24T06:17:24;3.23;;;1.43;;
66298;SDS011;53098;47.658;8.578;2023-04-24T06:19:49;4.60;;;1.13;;
66298;SDS011;53098;47.658;8.578;2023-04-24T06:22:14;3.50;;;1.50;;
66298;SDS011;53098;47.658;8.578;2023-04-24T06:24:40;4.00;;;1.60;;
66298;SDS011;53098;47.658;8.578;2023-04-24T06:27:05;6.07;;;1.70;;
66298;SDS011;53098;47.658;8.578;2023-04-24T06:29:30;4.55;;;1.55;;
66298;SDS011;53098;47.658;8.578;2023-04-24T06:31:55;5.90;;;1.90;;
66298;SDS011;53098;47.658;8.578;2023-04-24T06:34:21;4.80;;;1.90;;
66298;SDS011;53098;47.658;8.578;2023-04-24T06:36:46;4.43;;;1.53;;
66298;SDS011;53098;47.658;8.578;2023-04-24T06:39:11;7.30;;;2.00;;
66298;SDS011;53098;47.658;8.578;2023-04-24T06:41:37;4.20;;;1.57;;
66298;SDS011;53098;47.658;8.578;2023-04-24T06:44:02;4.43;;;1.60;;
66298;SDS011;53098;47.658;8.578;2023-04-24T06:46:27;4.73;;;1.90;;
66298;SDS011;53098;47.658;8.578;2023-04-24T06:48:53;6.07;;;1.67;;
66298;SDS011;53098;47.658;8.578;2023-04-24T06:51:18;3.83;;;1.52;;
66298;SDS011;53098;47.658;8.578;2023-04-24T06:53:44;4.27;;;1.80;;
66298;SDS011;53098;47.658;8.578;2023-04-24T06:56:09;4.90;;;1.60;;
66298;SDS011;53098;47.658;8.578;2023-04-24T06:58:34;4.97;;;1.57;;
66298;SDS011;53098;47.658;8.578;2023-04-24T07:00:59;3.40;;;1.50;;
66298;SDS011;53098;47.658;8.578;2023-04-24T07:03:24;3.77;;;1.50;;
66298;SDS011;53098;47.658;8.578;2023-04-24T07:05:50;4.13;;;1.93;;
66298;SDS011;53098;47.658;8.578;2023-04-24T07:08:15;5.90;;;1.70;;
66298;SDS011;53098;47.658;8.578;2023-04-24T07:10:40;4.50;;;1.50;;
66298;SDS011;53098;47.658;8.578;2023-04-24T07:13:06;3.47;;;1.50;;
66298;SDS011;53098;47.658;8.578;2023-04-24T07:15:31;3.78;;;1.30;;
66298;SDS011;53098;47.658;8.578;2023-04-24T07:17:56;3.60;;;1.70;;
66298;SDS011;53098;47.658;8.578;2023-04-24T07:20:21;3.43;;;1.67;;
66298;SDS011;53098;47.658;8.578;2023-04-24T07:22:47;3.50;;;1.70;;
66298;SDS011;53098;47.658;8.578;2023-04-24T07:25:12;5.43;;;1.70;;
66298;SDS011;53098;47.658;8.578;2023-04-24T07:27:37;4.65;;;1.92;;
66298;SDS011;53098;47.658;8.578;2023-04-24T07:30:03;3.50;;;1.40;;
66298;SDS011;53098;47.658;8.578;2023-04-24T07:32:29;7.60;;;1.40;;
66298;SDS011;53098;47.658;8.578;2023-04-24T07:34:54;2.43;;;1.20;;
66298;SDS011;53098;47.658;8.578;2023-04-24T07:37:19;3.13;;;1.23;;
66298;SDS011;53098;47.658;8.578;2023-04-24T07:39:44;3.13;;;1.10;;
66298;SDS011;53098;47.658;8.578;2023-04-24T07:42:10;1.73;;;0.93;;
66298;SDS011;53098;47.658;8.578;2023-04-24T07:44:35;2.90;;;1.17;;
66298;SDS011;53098;47.658;8.578;2023-04-24T07:47:00;2.47;;;0.93;;
66298;SDS011;53098;47.658;8.578;2023-04-24T07:49:25;1.13;;;0.70;;
66298;SDS011;53098;47.658;8.578;2023-04-24T07:51:51;1.80;;;0.90;;
66298;SDS011;53098;47.658;8.578;2023-04-24T07:54:16;2.60;;;0.80;;
66298;SDS011;53098;47.658;8.578;2023-04-24T07:56:43;3.08;;;0.90;;
66298;SDS011;53098;47.658;8.578;2023-04-24T07:59:08;2.58;;;1.15;;
66298;SDS011;53098;47.658;8.578;2023-04-24T08:01:33;4.20;;;1.42;;
66298;SDS011;53098;47.658;8.578;2023-04-24T08:03:59;2.60;;;1.00;;
66298;SDS011;53098;47.658;8.578;2023-04-24T08:06:24;5.03;;;1.50;;
66298;SDS011;53098;47.658;8.578;2023-04-24T08:08:52;5.37;;;1.30;;
66298;SDS011;53098;47.658;8.578;2023-04-24T08:11:17;3.42;;;1.20;;
66298;SDS011;53098;47.658;8.578;2023-04-24T08:13:42;3.77;;;1.10;;
66298;SDS011;53098;47.658;8.578;2023-04-24T08:16:07;4.27;;;1.30;;
66298;SDS011;53098;47.658;8.578;2023-04-24T08:18:33;9.40;;;1.40;;
66298;SDS011;53098;47.658;8.578;2023-04-24T08:20:58;2.80;;;1.20;;
66298;SDS011;53098;47.658;8.578;2023-04-24T08:23:23;3.30;;;1.40;;
66298;SDS011;53098;47.658;8.578;2023-04-24T08:25:48;3.87;;;1.33;;
66298;SDS011;53098;47.658;8.578;2023-04-24T08:28:14;6.07;;;1.60;;
66298;SDS011;53098;47.658;8.578;2023-04-24T08:30:39;6.67;;;1.70;;
66298;SDS011;53098;47.658;8.578;2023-04-24T08:33:04;6.53;;;1.70;;
66298;SDS011;53098;47.658;8.578;2023-04-24T08:35:29;6.80;;;2.00;;
66298;SDS011;53098;47.658;8.578;2023-04-24T08:37:55;5.27;;;1.43;;
66298;SDS011;53098;47.658;8.578;2023-04-24T08:40:22;5.00;;;1.60;;
66298;SDS011;53098;47.658;8.578;2023-04-24T08:42:48;5.15;;;1.50;;
66298;SDS011;53098;47.658;8.578;2023-04-24T08:45:14;5.57;;;2.25;;
66298;SDS011;53098;47.658;8.578;2023-04-24T08:47:39;4.93;;;1.47;;
66298;SDS011;53098;47.658;8.578;2023-04-24T08:50:05;4.47;;;1.58;;
66298;SDS011;53098;47.658;8.578;2023-04-24T08:52:34;5.93;;;2.00;;
66298;SDS011;53098;47.658;8.578;2023-04-24T08:55:00;5.93;;;1.55;;
66298;SDS011;53098;47.658;8.578;2023-04-24T08:57:25;4.38;;;1.85;;
66298;SDS011;53098;47.658;8.578;2023-04-24T08:59:50;3.53;;;1.50;;
66298;SDS011;53098;47.658;8.578;2023-04-24T09:02:16;4.07;;;1.52;;
66298;SDS011;53098;47.658;8.578;2023-04-24T09:04:42;4.35;;;1.58;;
66298;SDS011;53098;47.658;8.578;2023-04-24T09:07:08;9.25;;;1.77;;
66298;SDS011;53098;47.658;8.578;2023-04-24T09:09:35;4.07;;;1.70;;
66298;SDS011;53098;47.658;8.578;2023-04-24T09:12:00;3.45;;;1.50;;
66298;SDS011;53098;47.658;8.578;2023-04-24T09:14:26;7.13;;;1.70;;
66298;SDS011;53098;47.658;8.578;2023-04-24T09:16:52;4.70;;;1.70;;
66298;SDS011;53098;47.658;8.578;2023-04-24T09:19:17;8.13;;;1.60;;
66298;SDS011;53098;47.658;8.578;2023-04-24T09:21:44;7.17;;;1.70;;
66298;SDS011;53098;47.658;8.578;2023-04-24T09:24:17;2.67;;;1.40;;
66298;SDS011;53098;47.658;8.578;2023-04-24T09:26:42;4.25;;;1.35;;
66298;SDS011;53098;47.658;8.578;2023-04-24T09:29:08;4.38;;;1.40;;
66298;SDS011;53098;47.658;8.578;2023-04-24T09:31:38;6.18;;;1.50;;
66298;SDS011;53098;47.658;8.578;2023-04-24T09:34:04;7.00;;;2.67;;
66298;SDS011;53098;47.658;8.578;2023-04-24T09:36:30;5.43;;;1.70;;
66298;SDS011;53098;47.658;8.578;2023-04-24T09:38:59;8.95;;;2.70;;
66298;SDS011;53098;47.658;8.578;2023-04-24T09:41:24;4.75;;;1.52;;
66298;SDS011;53098;47.658;8.578;2023-04-24T09:43:50;5.90;;;1.40;;
66298;SDS011;53098;47.658;8.578;2023-04-24T09:46:15;2.73;;;1.30;;
66298;SDS011;53098;47.658;8.578;2023-04-24T09:48:43;7.05;;;1.75;;
66298;SDS011;53098;47.658;8.578;2023-04-24T09:51:08;4.13;;;1.30;;
66298;SDS011;53098;47.658;8.578;2023-04-24T09:53:33;4.67;;;1.37;;
66298;SDS011;53098;47.658;8.578;2023-04-24T09:56:02;5.07;;;1.70;;
66298;SDS011;53098;47.658;8.578;2023-04-24T09:58:28;3.78;;;1.40;;
66298;SDS011;53098;47.658;8.578;2023-04-24T10:00:54;5.57;;;1.38;;
66298;SDS011;53098;47.658;8.578;2023-04-24T10:03:19;4.90;;;1.40;;
66298;SDS011;53098;47.658;8.578;2023-04-24T10:05:45;5.30;;;1.77;;
66298;SDS011;53098;47.658;8.578;2023-04-24T10:08:11;3.58;;;1.25;;
66298;SDS011;53098;47.658;8.578;2023-04-24T10:10:46;6.53;;;1.52;;
66298;SDS011;53098;47.658;8.578;2023-04-24T10:13:12;4.18;;;1.48;;
66298;SDS011;53098;47.658;8.578;2023-04-24T10:15:38;6.30;;;1.50;;
66298;SDS011;53098;47.658;8.578;2023-04-24T10:18:04;4.22;;;1.50;;
66298;SDS011;53098;47.658;8.578;2023-04-24T10:20:30;5.18;;;1.58;;
66298;SDS011;53098;47.658;8.578;2023-04-24T10:22:55;6.93;;;1.33;;
66298;SDS011;53098;47.658;8.578;2023-04-24T10:25:21;6.05;;;2.17;;
66298;SDS011;53098;47.658;8.578;2023-04-24T10:27:47;7.13;;;1.27;;
66298;SDS011;53098;47.658;8.578;2023-04-24T10:30:13;8.43;;;1.30;;
66298;SDS011;53098;47.658;8.578;2023-04-24T10:32:38;5.28;;;1.30;;
66298;SDS011;53098;47.658;8.578;2023-04-24T10:35:05;4.93;;;1.90;;
66298;SDS011;53098;47.658;8.578;2023-04-24T10:37:34;5.38;;;1.40;;
66298;SDS011;53098;47.658;8.578;2023-04-24T10:40:01;9.55;;;1.52;;
66298;SDS011;53098;47.658;8.578;2023-04-24T10:42:27;4.38;;;1.42;;
66298;SDS011;53098;47.658;8.578;2023-04-24T10:44:52;2.25;;;1.25;;
66298;SDS011;53098;47.658;8.578;2023-04-24T10:47:18;3.57;;;1.20;;
66298;SDS011;53098;47.658;8.578;2023-04-24T10:49:43;5.07;;;1.43;;
66298;SDS011;53098;47.658;8.578;2023-04-24T10:52:08;3.10;;;1.20;;
66298;SDS011;53098;47.658;8.578;2023-04-24T10:59:35;5.07;;;2.20;;
66298;SDS011;53098;47.658;8.578;2023-04-24T11:02:00;4.35;;;1.20;;
66298;SDS011;53098;47.658;8.578;2023-04-24T11:04:29;3.53;;;1.02;;
66298;SDS011;53098;47.658;8.578;2023-04-24T11:06:55;2.65;;;1.10;;
66298;SDS011;53098;47.658;8.578;2023-04-24T11:09:20;3.80;;;1.20;;
66298;SDS011;53098;47.658;8.578;2023-04-24T11:11:46;3.47;;;1.63;;
66298;SDS011;53098;47.658;8.578;2023-04-24T11:14:14;3.95;;;1.25;;
66298;SDS011;53098;47.658;8.578;2023-04-24T11:16:43;5.53;;;1.50;;
66298;SDS011;53098;47.658;8.578;2023-04-24T11:21:44;4.43;;;1.17;;
66298;SDS011;53098;47.658;8.578;2023-04-24T11:29:39;4.57;;;1.30;;
66298;SDS011;53098;47.658;8.578;2023-04-24T11:34:49;4.22;;;1.40;;
66298;SDS011;53098;47.658;8.578;2023-04-24T11:37:14;8.45;;;1.48;;
66298;SDS011;53098;47.658;8.578;2023-04-24T11:39:40;2.70;;;1.48;;
66298;SDS011;53098;47.658;8.578;2023-04-24T11:42:05;6.25;;;1.50;;
66298;SDS011;53098;47.658;8.578;2023-04-24T11:44:31;2.47;;;1.27;;
66298;SDS011;53098;47.658;8.578;2023-04-24T11:46:58;5.72;;;1.52;;
66298;SDS011;53098;47.658;8.578;2023-04-24T11:49:23;4.43;;;1.70;;
66298;SDS011;53098;47.658;8.578;2023-04-24T11:51:49;3.43;;;1.40;;
66298;SDS011;53098;47.658;8.578;2023-04-24T11:54:14;3.33;;;1.33;;
66298;SDS011;53098;47.658;8.578;2023-04-24T11:56:39;6.60;;;1.50;;
66298;SDS011;53098;47.658;8.578;2023-04-24T11:59:09;4.82;;;1.65;;
66298;SDS011;53098;47.658;8.578;2023-04-24T12:01:44;4.63;;;1.33;;
66298;SDS011;53098;47.658;8.578;2023-04-24T12:04:09;4.57;;;1.42;;
66298;SDS011;53098;47.658;8.578;2023-04-24T12:06:35;5.23;;;1.63;;
66298;SDS011;53098;47.658;8.578;2023-04-24T12:09:00;2.27;;;1.10;;
66298;SDS011;53098;47.658;8.578;2023-04-24T12:11:25;4.77;;;1.43;;
66298;SDS011;53098;47.658;8.578;2023-04-24T12:13:50;6.13;;;1.40;;
66298;SDS011;53098;47.658;8.578;2023-04-24T12:16:16;4.00;;;1.37;;
66298;SDS011;53098;47.658;8.578;2023-04-24T12:18:42;6.53;;;1.80;;
66298;SDS011;53098;47.658;8.578;2023-04-24T12:21:17;4.80;;;1.60;;
66298;SDS011;53098;47.658;8.578;2023-04-24T12:23:43;4.13;;;1.42;;
66298;SDS011;53098;47.658;8.578;2023-04-24T12:26:08;4.00;;;1.15;;
66298;SDS011;53098;47.658;8.578;2023-04-24T12:28:34;5.40;;;1.60;;
66298;SDS011;53098;47.658;8.578;2023-04-24T12:31:00;5.80;;;1.80;;
66298;SDS011;53098;47.658;8.578;2023-04-24T12:33:25;6.78;;;1.65;;
66298;SDS011;53098;47.658;8.578;2023-04-24T12:35:51;2.90;;;1.33;;
66298;SDS011;53098;47.658;8.578;2023-04-24T12:38:21;4.40;;;1.45;;
66298;SDS011;53098;47.658;8.578;2023-04-24T12:40:46;3.95;;;1.55;;
66298;SDS011;53098;47.658;8.578;2023-04-24T12:45:40;8.35;;;1.52;;
66298;SDS011;53098;47.658;8.578;2023-04-24T12:48:05;4.37;;;1.67;;
66298;SDS011;53098;47.658;8.578;2023-04-24T12:50:30;6.77;;;1.70;;
66298;SDS011;53098;47.658;8.578;2023-04-24T12:52:55;4.37;;;1.20;;
66298;SDS011;53098;47.658;8.578;2023-04-24T12:55:21;6.33;;;1.40;;
66298;SDS011;53098;47.658;8.578;2023-04-24T12:57:46;3.50;;;1.40;;
66298;SDS011;53098;47.658;8.578;2023-04-24T13:00:11;2.93;;;1.20;;
66298;SDS011;53098;47.658;8.578;2023-04-24T13:02:37;3.47;;;1.20;;
66298;SDS011;53098;47.658;8.578;2023-04-24T13:05:02;5.60;;;1.37;;
66298;SDS011;53098;47.658;8.578;2023-04-24T13:07:28;4.03;;;1.58;;
66298;SDS011;53098;47.658;8.578;2023-04-24T13:09:54;6.88;;;1.33;;
66298;SDS011;53098;47.658;8.578;2023-04-24T13:12:19;4.95;;;1.30;;
66298;SDS011;53098;47.658;8.578;2023-04-24T13:14:45;3.85;;;1.30;;
66298;SDS011;53098;47.658;8.578;2023-04-24T13:17:10;4.87;;;1.30;;
66298;SDS011;53098;47.658;8.578;2023-04-24T13:19:39;3.53;;;1.13;;
66298;SDS011;53098;47.658;8.578;2023-04-24T13:22:05;2.58;;;1.20;;
66298;SDS011;53098;47.658;8.578;2023-04-24T13:24:30;6.47;;;1.40;;
66298;SDS011;53098;47.658;8.578;2023-04-24T13:26:55;5.93;;;1.40;;
66298;SDS011;53098;47.658;8.578;2023-04-24T13:29:20;5.00;;;1.50;;
66298;SDS011;53098;47.658;8.578;2023-04-24T13:31:46;4.60;;;1.40;;
66298;SDS011;53098;47.658;8.578;2023-04-24T13:34:12;4.95;;;1.40;;
66298;SDS011;53098;47.658;8.578;2023-04-24T13:36:37;4.38;;;1.20;;
66298;SDS011;53098;47.658;8.578;2023-04-24T13:39:03;6.03;;;1.80;;
66298;SDS011;53098;47.658;8.578;2023-04-24T13:41:30;2.28;;;1.23;;
66298;SDS011;53098;47.658;8.578;2023-04-24T13:43:55;4.43;;;1.48;;
66298;SDS011;53098;47.658;8.578;2023-04-24T13:46:20;4.57;;;1.40;;
66298;SDS011;53098;47.658;8.578;2023-04-24T13:48:46;2.50;;;1.17;;
66298;SDS011;53098;47.658;8.578;2023-04-24T13:51:11;4.32;;;1.52;;
66298;SDS011;53098;47.658;8.578;2023-04-24T13:53:36;5.17;;;1.50;;
66298;SDS011;53098;47.658;8.578;2023-04-24T13:56:01;2.70;;;1.20;;
66298;SDS011;53098;47.658;8.578;2023-04-24T13:58:27;5.13;;;1.20;;
66298;SDS011;53098;47.658;8.578;2023-04-24T14:00:52;4.68;;;1.35;;
66298;SDS011;53098;47.658;8.578;2023-04-24T14:03:17;3.23;;;1.23;;
66298;SDS011;53098;47.658;8.578;2023-04-24T14:05:43;6.87;;;1.30;;
66298;SDS011;53098;47.658;8.578;2023-04-24T14:08:08;4.78;;;1.10;;
66298;SDS011;53098;47.658;8.578;2023-04-24T14:10:33;4.57;;;2.13;;
66298;SDS011;53098;47.658;8.578;2023-04-24T14:12:58;5.27;;;1.73;;
66298;SDS011;53098;47.658;8.578;2023-04-24T14:15:24;5.13;;;1.50;;
66298;SDS011;53098;47.658;8.578;2023-04-24T14:17:49;5.20;;;1.60;;
66298;SDS011;53098;47.658;8.578;2023-04-24T14:20:14;2.17;;;1.17;;
66298;SDS011;53098;47.658;8.578;2023-04-24T14:22:40;4.65;;;1.35;;
66298;SDS011;53098;47.658;8.578;2023-04-24T14:25:05;3.20;;;1.37;;
66298;SDS011;53098;47.658;8.578;2023-04-24T14:27:31;4.18;;;1.33;;
66298;SDS011;53098;47.658;8.578;2023-04-24T14:29:56;4.07;;;1.30;;
66298;SDS011;53098;47.658;8.578;2023-04-24T14:32:22;2.65;;;1.38;;
66298;SDS011;53098;47.658;8.578;2023-04-24T14:34:47;8.17;;;1.70;;
66298;SDS011;53098;47.658;8.578;2023-04-24T14:37:12;5.37;;;1.40;;
66298;SDS011;53098;47.658;8.578;2023-04-24T14:39:38;3.50;;;1.25;;
66298;SDS011;53098;47.658;8.578;2023-04-24T14:42:03;7.40;;;1.80;;
66298;SDS011;53098;47.658;8.578;2023-04-24T14:44:28;4.00;;;1.73;;
66298;SDS011;53098;47.658;8.578;2023-04-24T14:46:53;4.87;;;1.53;;
66298;SDS011;53098;47.658;8.578;2023-04-24T14:49:19;5.43;;;1.60;;
66298;SDS011;53098;47.658;8.578;2023-04-24T14:51:44;7.03;;;1.60;;
66298;SDS011;53098;47.658;8.578;2023-04-24T14:54:09;5.67;;;1.90;;
66298;SDS011;53098;47.658;8.578;2023-04-24T14:56:34;4.63;;;1.60;;